Time;durP1;ratioP1;P1;durP2;ratioP2;P2;SDS_P1;SDS_P2;PMS_P1;PMS_P2;Temp;Humidity;BMP_temperature;BMP_pressure;BME280_temperature;BME280_humidity;BME280_pressure;Samples;Min_cycle;Max_cycle;Signal;HPM_P1;HPM_P2
2023/06/15 00:00:49;;;;;;;12.10;5.50;;;;;;;15.42;100.00;100731.02;105706;1254;59460;-42
2023/06/15 00:03:16;;;;;;;16.70;5.60;;;;;;;15.41;100.00;100735.76;105667;1258;70106;-42
2023/06/15 00:05:44;;;;;;;13.50;6.30;;;;;;;15.40;100.00;100746.73;105644;1259;64004;-42
2023/06/15 00:08:12;;;;;;;15.40;5.10;;;;;;;15.39;100.00;100752.67;105675;1254;70932;-42
2023/06/15 00:10:40;;;;;;;13.30;5.60;;;;;;;15.38;100.00;100761.77;105642;1254;61630;-42
2023/06/15 00:13:07;;;;;;;12.90;5.20;;;;;;;15.35;100.00;100771.23;105628;1255;59555;-42
2023/06/15 00:15:36;;;;;;;15.70;5.70;;;;;;;15.34;100.00;100778.95;105696;1254;71656;-42
2023/06/15 00:18:05;;;;;;;22.30;5.70;;;;;;;15.31;100.00;100784.96;105681;1254;63973;-43
2023/06/15 00:20:34;;;;;;;9.50;5.50;;;;;;;15.27;100.00;100795.15;105666;1257;70387;-43
2023/06/15 00:23:02;;;;;;;17.30;5.20;;;;;;;15.22;100.00;100803.31;105689;1254;59724;-42
2023/06/15 00:25:32;;;;;;;12.20;5.00;;;;;;;15.17;100.00;100806.77;105660;1255;60071;-43
2023/06/15 00:28:01;;;;;;;15.40;5.40;;;;;;;15.15;100.00;100807.02;105672;1254;72128;-42
2023/06/15 00:30:28;;;;;;;14.70;5.30;;;;;;;15.13;100.00;100809.32;105730;1254;64087;-42
2023/06/15 00:32:56;;;;;;;16.70;5.40;;;;;;;15.12;100.00;100809.00;105926;1251;71758;-42
2023/06/15 00:35:24;;;;;;;11.30;5.70;;;;;;;15.13;100.00;100807.79;105985;1251;60089;-42
2023/06/15 00:37:52;;;;;;;16.70;5.60;;;;;;;15.13;100.00;100805.52;106003;1251;59547;-42
2023/06/15 00:40:20;;;;;;;16.60;5.40;;;;;;;15.13;100.00;100800.66;105802;1254;72086;-42
2023/06/15 00:42:48;;;;;;;11.20;5.30;;;;;;;15.13;100.00;100801.50;105947;1257;64009;-42
2023/06/15 00:45:16;;;;;;;11.00;4.80;;;;;;;15.14;100.00;100804.80;105952;1253;72649;-46
2023/06/15 00:47:46;;;;;;;18.40;4.60;;;;;;;15.15;100.00;100802.30;105711;1254;60458;-43
2023/06/15 00:50:20;;;;;;;10.50;5.10;;;;;;;15.17;100.00;100797.04;105946;1254;59954;-41
2023/06/15 00:52:49;;;;;;;9.90;5.20;;;;;;;15.20;100.00;100792.95;105892;1256;72072;-41
2023/06/15 00:55:17;;;;;;;7.40;4.60;;;;;;;15.22;100.00;100789.91;105945;1254;65182;-44
2023/06/15 00:57:49;;;;;;;13.50;5.70;;;;;;;15.26;100.00;100784.58;105830;1254;71400;-43
2023/06/15 01:00:18;;;;;;;11.20;4.40;;;;;;;15.30;100.00;100786.39;105605;1257;60554;-42
2023/06/15 01:02:48;;;;;;;14.40;5.90;;;;;;;15.32;100.00;100782.13;105829;1254;59593;-44
2023/06/15 01:05:18;;;;;;;8.80;4.40;;;;;;;15.35;100.00;100789.67;105928;1256;73084;-44
2023/06/15 01:07:47;;;;;;;8.70;4.50;;;;;;;15.37;100.00;100787.00;105786;1257;64004;-42
2023/06/15 01:10:16;;;;;;;12.10;5.00;;;;;;;15.40;100.00;100786.39;105847;1253;71165;-42
2023/06/15 01:12:45;;;;;;;11.60;4.60;;;;;;;15.43;100.00;100790.83;105873;1254;60446;-41
2023/06/15 01:15:13;;;;;;;11.10;4.70;;;;;;;15.45;100.00;100793.19;105926;1256;59616;-41
2023/06/15 01:17:45;;;;;;;7.50;4.20;;;;;;;15.48;100.00;100797.27;105728;1254;71767;-41
2023/06/15 01:20:21;;;;;;;12.50;4.20;;;;;;;15.50;100.00;100801.88;105905;1254;64040;-41
2023/06/15 01:23:10;;;;;;;;;;;;;;;15.51;100.00;100807.21;105738;1259;71399;-41
2023/06/15 01:25:44;;;;;;;16.60;5.00;;;;;;;15.51;100.00;100813.30;105886;1257;59749;-41
2023/06/15 01:28:15;;;;;;;13.40;4.00;;;;;;;15.51;100.00;100815.21;105849;1254;59549;-41
2023/06/15 01:30:44;;;;;;;7.80;4.00;;;;;;;15.51;100.00;100816.98;105729;1253;72987;-41
2023/06/15 01:33:15;;;;;;;8.90;3.90;;;;;;;15.50;100.00;100821.86;105672;1254;65284;-41
2023/06/15 01:35:43;;;;;;;9.10;4.30;;;;;;;15.49;100.00;100821.73;105867;1253;71347;-41
2023/06/15 01:38:10;;;;;;;9.90;4.10;;;;;;;15.49;100.00;100824.71;105758;1254;60450;-41
2023/06/15 01:40:40;;;;;;;17.20;4.30;;;;;;;15.48;100.00;100831.16;105914;1256;59621;-42
2023/06/15 01:43:19;;;;;;;8.90;4.00;;;;;;;15.48;100.00;100833.42;105766;1257;72990;-41
2023/06/15 01:45:46;;;;;;;8.30;4.60;;;;;;;15.47;100.00;100838.50;105796;1257;65218;-41
2023/06/15 01:48:14;;;;;;;8.40;4.10;;;;;;;15.46;100.00;100844.10;105874;1256;71887;-41
2023/06/15 01:50:42;;;;;;;9.60;4.00;;;;;;;15.45;100.00;100840.64;105860;1252;60003;-41
2023/06/15 01:53:10;;;;;;;10.20;3.80;;;;;;;15.45;100.00;100839.07;105694;1257;59528;-41
2023/06/15 01:55:38;;;;;;;12.00;3.80;;;;;;;15.45;100.00;100837.88;105681;1254;71808;-41
2023/06/15 01:58:06;;;;;;;19.00;4.70;;;;;;;15.47;100.00;100835.88;105891;1254;63874;-41
2023/06/15 02:00:34;;;;;;;11.40;4.10;;;;;;;15.49;100.00;100834.09;105796;1256;72716;-41
2023/06/15 02:03:02;;;;;;;10.20;4.50;;;;;;;15.50;100.00;100829.68;105769;1254;59608;-41
2023/06/15 02:05:32;;;;;;;7.60;4.10;;;;;;;15.52;100.00;100827.71;105922;1256;59653;-41
2023/06/15 02:08:00;;;;;;;11.70;3.80;;;;;;;15.55;100.00;100821.21;105678;1254;73076;-41
2023/06/15 02:10:27;;;;;;;18.10;4.60;;;;;;;15.57;100.00;100821.65;105755;1254;65177;-41
2023/06/15 02:12:56;;;;;;;16.60;4.20;;;;;;;15.58;100.00;100819.20;105652;1254;71521;-41
2023/06/15 02:15:24;;;;;;;7.70;3.90;;;;;;;15.59;100.00;100820.39;105696;1259;60358;-41
2023/06/15 02:17:58;;;;;;;8.90;4.10;;;;;;;15.60;100.00;100818.77;105769;1253;60042;-41
2023/06/15 02:20:26;;;;;;;16.40;4.60;;;;;;;15.62;100.00;100815.91;105892;1254;72975;-41
2023/06/15 02:22:57;;;;;;;12.90;4.40;;;;;;;15.64;100.00;100810.80;105764;1254;64279;-41
2023/06/15 02:25:25;;;;;;;8.80;4.00;;;;;;;15.68;100.00;100811.73;105911;1254;72583;-42
2023/06/15 02:27:53;;;;;;;13.40;4.80;;;;;;;15.71;100.00;100813.54;105778;1254;60551;-41
2023/06/15 02:30:21;;;;;;;10.20;3.90;;;;;;;15.74;100.00;100809.77;105713;1259;60433;-41
2023/06/15 02:32:49;;;;;;;12.50;4.00;;;;;;;15.79;100.00;100813.09;105657;1259;70830;-40
2023/06/15 02:35:18;;;;;;;10.20;4.00;;;;;;;15.84;100.00;100815.73;105808;1254;64310;-41
2023/06/15 02:37:46;;;;;;;9.10;4.20;;;;;;;15.89;100.00;100816.79;105698;1259;71395;-41
2023/06/15 02:40:15;;;;;;;10.50;4.40;;;;;;;15.93;100.00;100819.23;105915;1252;59800;-41
2023/06/15 02:42:42;;;;;;;9.00;3.60;;;;;;;15.98;100.00;100822.04;105886;1256;59701;-41
2023/06/15 02:45:12;;;;;;;8.20;4.00;;;;;;;16.04;100.00;100825.14;105735;1256;72178;-41
2023/06/15 02:47:42;;;;;;;12.00;3.80;;;;;;;16.11;100.00;100829.42;105961;1253;63794;-41
2023/06/15 02:50:10;;;;;;;7.40;3.50;;;;;;;16.18;100.00;100824.45;105661;1258;72686;-41
2023/06/15 02:52:45;;;;;;;10.30;3.80;;;;;;;16.25;100.00;100829.98;105926;1254;60453;-41
2023/06/15 02:55:13;;;;;;;8.10;3.30;;;;;;;16.33;100.00;100830.54;105792;1254;60054;-42
2023/06/15 02:57:43;;;;;;;10.60;3.80;;;;;;;16.43;100.00;100833.33;105891;1254;73094;-41
2023/06/15 03:00:46;;;;;;;12.00;4.00;;;;;;;16.54;100.00;100840.24;105539;1254;63944;-42
2023/06/15 03:03:40;;;;;;;12.70;3.50;;;;;;;16.66;100.00;100846.93;105735;1254;71791;-42
2023/06/15 03:06:09;;;;;;;14.70;3.90;;;;;;;16.77;100.00;100848.08;105902;1254;60451;-42
2023/06/15 03:08:40;;;;;;;12.20;3.20;;;;;;;16.89;100.00;100848.69;105804;1257;59682;-42
2023/06/15 03:11:17;;;;;;;15.40;3.90;;;;;;;16.98;100.00;100852.90;105700;1257;72053;-42
2023/06/15 03:13:46;;;;;;;18.60;3.80;;;;;;;17.01;100.00;100851.91;105652;1254;64487;-42
2023/06/15 03:16:15;;;;;;;11.40;3.70;;;;;;;17.05;100.00;100857.15;105886;1253;71397;-42
2023/06/15 03:18:45;;;;;;;13.70;3.60;;;;;;;17.05;100.00;100851.73;105909;1253;60686;-42
2023/06/15 03:21:14;;;;;;;13.40;4.30;;;;;;;17.07;100.00;100848.55;105710;1254;59646;-42
2023/06/15 03:23:44;;;;;;;13.60;3.60;;;;;;;17.09;100.00;100845.31;105909;1256;70968;-42
2023/06/15 03:26:13;;;;;;;13.20;4.20;;;;;;;17.13;100.00;100845.16;105935;1254;63083;-43
2023/06/15 03:28:41;;;;;;;12.00;3.70;;;;;;;17.19;100.00;100845.24;105757;1254;71124;-42
2023/06/15 03:31:12;;;;;;;9.20;3.60;;;;;;;17.26;100.00;100848.49;105728;1254;60694;-42
2023/06/15 03:33:40;;;;;;;9.60;3.10;;;;;;;17.34;100.00;100846.95;105711;1254;60020;-42
2023/06/15 03:36:08;;;;;;;12.60;3.70;;;;;;;17.43;100.00;100850.05;105773;1257;71555;-42
2023/06/15 03:38:35;;;;;;;12.80;3.80;;;;;;;17.55;100.00;100845.90;105718;1254;63104;-43
2023/06/15 03:41:03;;;;;;;10.60;3.60;;;;;;;17.73;100.00;100837.30;105746;1254;71405;-42
2023/06/15 03:43:31;;;;;;;9.50;3.90;;;;;;;17.95;100.00;100824.20;105654;1257;59749;-42
2023/06/15 03:45:59;;;;;;;8.70;3.80;;;;;;;18.12;100.00;100799.70;105697;1258;59670;-43
2023/06/15 03:48:27;;;;;;;12.60;3.80;;;;;;;18.30;100.00;100769.21;105455;1257;72968;-43
2023/06/15 03:50:56;;;;;;;13.50;3.20;;;;;;;18.47;100.00;100725.83;105771;1255;64063;-43
2023/06/15 03:53:24;;;;;;;9.80;3.30;;;;;;;18.58;100.00;100667.42;105966;1254;70402;-43
2023/06/15 03:56:29;;;;;;;14.20;3.80;;;;;;;18.70;100.00;100597.64;102761;1295;600123;-42
2023/06/15 03:58:57;;;;;;;6.70;3.60;;;;;;;18.69;100.00;100542.98;104776;1269;61659;-41
2023/06/15 04:01:25;;;;;;;7.70;3.30;;;;;;;18.64;100.00;100517.36;104878;1267;59295;-41
2023/06/15 04:03:54;;;;;;;8.20;4.00;;;;;;;18.60;100.00;100504.16;104884;1269;69873;-42
2023/06/15 04:06:23;;;;;;;11.30;3.70;;;;;;;18.56;100.00;100507.48;104868;1270;63990;-42
2023/06/15 04:08:51;;;;;;;13.30;4.10;;;;;;;18.62;100.00;100522.04;104943;1266;71551;-42
2023/06/15 04:11:22;;;;;;;6.80;3.40;;;;;;;18.75;100.00;100527.33;104855;1265;61092;-42
2023/06/15 04:13:50;;;;;;;12.30;3.70;;;;;;;18.80;100.00;100509.73;105250;1267;59992;-41
2023/06/15 04:16:18;;;;;;;9.20;3.90;;;;;;;18.84;100.00;100490.70;105206;1269;72214;-42
2023/06/15 04:18:47;;;;;;;9.50;3.80;;;;;;;18.85;100.00;100463.38;105198;1264;64526;-42
2023/06/15 04:21:15;;;;;;;11.10;3.70;;;;;;;18.82;100.00;100447.45;105149;1269;71410;-42
2023/06/15 04:23:43;;;;;;;10.70;3.60;;;;;;;18.78;100.00;100453.75;105196;1263;60744;-42
2023/06/15 04:26:13;;;;;;;8.20;3.60;;;;;;;18.81;100.00;100476.31;105164;1264;59634;-42
2023/06/15 04:28:45;;;;;;;9.90;4.40;;;;;;;18.80;100.00;100474.96;105159;1269;73104;-42
2023/06/15 04:31:14;;;;;;;7.40;3.90;;;;;;;18.76;100.00;100461.91;105209;1270;64095;-42
2023/06/15 04:33:42;;;;;;;8.30;4.10;;;;;;;18.73;100.00;100460.31;105291;1263;71723;-42
2023/06/15 04:36:12;;;;;;;12.50;3.80;;;;;;;18.70;100.00;100467.30;105288;1266;60691;-42
2023/06/15 04:38:46;;;;;;;14.70;4.20;;;;;;;18.72;100.00;100480.48;105307;1261;59947;-43
2023/06/15 04:41:21;;;;;;;10.60;4.00;;;;;;;18.71;100.00;100483.15;105277;1264;72986;-41
2023/06/15 04:43:51;;;;;;;10.60;4.00;;;;;;;18.72;100.00;100486.23;105311;1265;64000;-41
2023/06/15 04:46:19;;;;;;;13.30;4.50;;;;;;;18.71;100.00;100488.04;105209;1260;72632;-42
2023/06/15 04:48:47;;;;;;;13.50;4.60;;;;;;;18.76;100.00;100503.84;105330;1266;60515;-42
2023/06/15 04:51:15;;;;;;;11.30;4.60;;;;;;;18.80;100.00;100509.20;105251;1265;59697;-42
2023/06/15 04:53:43;;;;;;;8.90;4.00;;;;;;;18.74;100.00;100488.38;105293;1261;73063;-44
2023/06/15 04:56:11;;;;;;;13.20;4.20;;;;;;;18.66;100.00;100464.13;105320;1266;63964;-44
2023/06/15 04:58:39;;;;;;;11.90;4.10;;;;;;;18.70;100.00;100480.39;105149;1264;72775;-43
2023/06/15 05:01:07;;;;;;;12.40;4.10;;;;;;;18.75;100.00;100479.42;105155;1261;59704;-43
2023/06/15 05:03:35;;;;;;;11.40;4.10;;;;;;;18.79;100.00;100461.55;105286;1259;60008;-43
2023/06/15 05:06:03;;;;;;;11.20;4.20;;;;;;;18.83;100.00;100440.40;105346;1266;71832;-44
2023/06/15 05:08:33;;;;;;;8.60;4.00;;;;;;;18.84;100.00;100425.48;105273;1266;64151;-42
2023/06/15 05:11:01;;;;;;;13.70;4.50;;;;;;;18.91;100.00;100417.95;105256;1266;71434;-41
2023/06/15 05:13:31;;;;;;;14.10;4.60;;;;;;;18.92;100.00;100398.84;105210;1263;59649;-42
2023/06/15 05:16:00;;;;;;;13.10;4.30;;;;;;;18.93;100.00;100392.65;105273;1259;59624;-41
2023/06/15 05:18:29;;;;;;;8.00;3.80;;;;;;;19.02;100.00;100402.85;105258;1261;72405;-42
2023/06/15 05:20:57;;;;;;;9.90;3.80;;;;;;;19.08;100.00;100402.55;105260;1265;63947;-41
2023/06/15 05:23:26;;;;;;;11.10;4.40;;;;;;;19.06;100.00;100377.45;105306;1261;71666;-42
2023/06/15 05:25:54;;;;;;;8.90;3.70;;;;;;;19.03;100.00;100358.07;105287;1261;59609;-42
2023/06/15 05:28:22;;;;;;;11.50;3.70;;;;;;;19.06;100.00;100360.17;105268;1266;59620;-41
2023/06/15 05:30:53;;;;;;;14.40;4.40;;;;;;;19.16;100.00;100375.54;105207;1260;71827;-41
2023/06/15 05:33:20;;;;;;;11.30;4.10;;;;;;;19.27;100.00;100376.70;105218;1267;65301;-42
2023/06/15 05:35:48;;;;;;;11.50;3.70;;;;;;;19.36;100.00;100373.88;105247;1265;72632;-42
2023/06/15 05:38:16;;;;;;;9.00;3.80;;;;;;;19.37;100.00;100341.46;105264;1274;60408;-42
2023/06/15 05:40:44;;;;;;;10.80;3.80;;;;;;;19.43;100.00;100330.65;105231;1274;59545;-41
2023/06/15 05:43:12;;;;;;;8.60;4.00;;;;;;;19.53;100.00;100320.05;105266;1269;72983;-42
2023/06/15 05:45:40;;;;;;;10.30;4.50;;;;;;;19.73;100.00;100295.48;105272;1266;64094;-42
2023/06/15 05:48:09;;;;;;;7.40;3.90;;;;;;;19.96;100.00;100271.03;105245;1266;71783;-42
2023/06/15 05:50:37;;;;;;;11.00;4.00;;;;;;;20.22;100.00;100247.00;105232;1260;59619;-42
2023/06/15 05:53:06;;;;;;;9.50;3.50;;;;;;;20.44;100.00;100201.00;105283;1260;59528;-42
2023/06/15 05:55:34;;;;;;;15.70;4.10;;;;;;;20.57;100.00;100164.36;105283;1267;72260;-42
2023/06/15 05:58:02;;;;;;;10.20;3.70;;;;;;;20.70;100.00;100137.80;105602;1263;65293;-42
2023/06/15 06:00:31;;;;;;;16.60;4.30;;;;;;;20.79;100.00;100114.40;105634;1263;71677;-42
2023/06/15 06:03:01;;;;;;;11.40;3.20;;;;;;;20.88;100.00;100108.95;105627;1260;59849;-43
2023/06/15 06:05:37;;;;;;;12.70;4.10;;;;;;;20.79;100.00;100089.90;105611;1260;59680;-42
2023/06/15 06:08:06;;;;;;;9.10;3.70;;;;;;;20.64;100.00;100089.79;105613;1257;73006;-42
2023/06/15 06:10:33;;;;;;;9.00;3.80;;;;;;;20.66;100.00;100095.83;105599;1260;65130;-41
2023/06/15 06:13:11;;;;;;;8.50;3.60;;;;;;;20.67;100.00;100100.77;105577;1258;71434;-42
2023/06/15 06:15:40;;;;;;;12.50;3.90;;;;;;;20.66;100.00;100107.52;105631;1258;60515;-42
2023/06/15 06:18:07;;;;;;;10.30;3.80;;;;;;;20.68;100.00;100110.21;105604;1260;59513;-42
2023/06/15 06:20:36;;;;;;;6.00;3.00;;;;;;;20.68;100.00;100109.35;105597;1256;73110;-42
2023/06/15 06:23:04;;;;;;;14.20;3.60;;;;;;;20.67;100.00;100114.86;105572;1261;63928;-42
2023/06/15 06:25:32;;;;;;;7.20;3.80;;;;;;;20.80;100.00;100119.95;105629;1260;72707;-42
2023/06/15 06:28:00;;;;;;;9.80;3.90;;;;;;;21.16;100.00;100122.50;105582;1270;61639;-42
2023/06/15 06:30:28;;;;;;;7.10;3.30;;;;;;;21.56;100.00;100106.79;105657;1260;59750;-42
2023/06/15 06:32:56;;;;;;;10.30;3.70;;;;;;;21.74;100.00;100103.98;105580;1261;73087;-42
2023/06/15 06:35:28;;;;;;;9.60;3.60;;;;;;;21.85;100.00;100108.26;105655;1261;63895;-44
2023/06/15 06:37:55;;;;;;;15.00;3.70;;;;;;;21.99;100.00;100115.40;105318;1260;73103;-44
2023/06/15 06:40:25;;;;;;;16.40;4.10;;;;;;;22.21;100.00;100123.08;105487;1260;59725;-44
2023/06/15 06:42:53;;;;;;;8.10;3.60;;;;;;;22.44;100.00;100151.36;105658;1260;61113;-44
2023/06/15 06:45:21;;;;;;;11.00;4.00;;;;;;;22.55;100.00;100168.80;105648;1258;71801;-44
2023/06/15 06:47:49;;;;;;;7.60;3.60;;;;;;;22.68;100.00;100176.52;105598;1258;64001;-44
2023/06/15 06:50:16;;;;;;;11.50;3.90;;;;;;;22.85;100.00;100192.66;105607;1260;71540;-43
2023/06/15 06:52:44;;;;;;;9.10;2.90;;;;;;;22.97;100.00;100229.41;105625;1258;60179;-43
2023/06/15 06:55:12;;;;;;;10.30;3.50;;;;;;;22.99;100.00;100237.04;105628;1256;59599;-43
2023/06/15 06:57:40;;;;;;;12.80;4.30;;;;;;;23.09;100.00;100239.29;105586;1257;71733;-44
2023/06/15 07:00:10;;;;;;;13.40;4.10;;;;;;;23.13;100.00;100251.85;105653;1258;65352;-43
2023/06/15 07:02:38;;;;;;;9.70;4.00;;;;;;;23.05;100.00;100257.73;105895;1254;72639;-43
2023/06/15 07:05:06;;;;;;;15.10;3.90;;;;;;;23.07;100.00;100257.54;105881;1253;59632;-41
2023/06/15 07:07:33;;;;;;;12.70;4.20;;;;;;;22.90;100.00;100270.05;105769;1257;59624;-42
2023/06/15 07:10:01;;;;;;;15.60;4.00;;;;;;;22.94;100.00;100248.16;105869;1251;72979;-43
2023/06/15 07:12:29;;;;;;;7.10;3.50;;;;;;;23.10;100.00;100250.11;105969;1252;63922;-44
2023/06/15 07:14:57;;;;;;;16.20;4.00;;;;;;;23.14;100.00;100274.32;105872;1254;71725;-42
2023/06/15 07:17:25;;;;;;;9.80;3.40;;;;;;;23.12;100.00;100287.46;105866;1256;59896;-42
2023/06/15 07:19:53;;;;;;;10.00;3.50;;;;;;;23.38;100.00;100278.17;105996;1254;59948;-42
2023/06/15 07:22:21;;;;;;;8.30;3.40;;;;;;;23.48;100.00;100289.38;105928;1254;71735;-41
2023/06/15 07:24:50;;;;;;;7.40;3.40;;;;;;;23.68;100.00;100294.96;105889;1257;64343;-43
2023/06/15 07:27:18;;;;;;;10.90;3.60;;;;;;;23.79;100.00;100305.20;105943;1257;72586;-42
2023/06/15 07:29:47;;;;;;;10.50;3.50;;;;;;;23.75;100.00;100332.97;105892;1257;60561;-42
2023/06/15 07:32:15;;;;;;;9.40;3.90;;;;;;;23.78;100.00;100343.86;105927;1251;60097;-42
2023/06/15 07:34:42;;;;;;;8.40;3.10;;;;;;;23.96;100.00;100348.48;105898;1257;71801;-42
2023/06/15 07:37:10;;;;;;;10.50;3.40;;;;;;;24.12;100.00;100346.41;105941;1257;63948;-43
2023/06/15 07:39:38;;;;;;;8.70;2.90;;;;;;;24.13;100.00;100343.20;105880;1256;71489;-42
2023/06/15 07:42:06;;;;;;;6.50;3.10;;;;;;;24.17;100.00;100349.36;105898;1254;59632;-42
2023/06/15 07:44:35;;;;;;;23.50;4.10;;;;;;;24.37;100.00;100338.83;105907;1255;59538;-42
2023/06/15 07:47:03;;;;;;;8.30;3.40;;;;;;;24.62;100.00;100331.20;105918;1254;73008;-42
2023/06/15 07:49:31;;;;;;;14.20;2.70;;;;;;;24.63;100.00;100348.31;105913;1257;63913;-43
2023/06/15 07:52:12;;;;;;;19.80;3.40;;;;;;;24.30;100.00;100360.87;105845;1254;72609;-43
2023/06/15 07:54:41;;;;;;;7.80;3.60;;;;;;;24.00;100.00;100373.02;105888;1254;59715;-43
2023/06/15 07:57:10;;;;;;;14.70;3.60;;;;;;;23.98;100.00;100373.52;105958;1253;59535;-42
2023/06/15 07:59:38;;;;;;;9.90;3.40;;;;;;;24.03;100.00;100362.42;105893;1252;73516;-44
2023/06/15 08:02:06;;;;;;;7.30;3.50;;;;;;;24.09;100.00;100364.59;105854;1252;63987;-44
2023/06/15 08:04:34;;;;;;;11.20;3.60;;;;;;;24.20;100.00;100355.89;105920;1256;72569;-44
2023/06/15 08:07:02;;;;;;;11.70;3.70;;;;;;;24.12;100.00;100361.09;105872;1257;60530;-44
2023/06/15 08:09:30;;;;;;;12.30;4.10;;;;;;;23.98;100.00;100378.12;105817;1251;60326;-44
2023/06/15 08:11:58;;;;;;;11.60;3.80;;;;;;;23.94;100.00;100372.77;105899;1252;72563;-43
2023/06/15 08:14:26;;;;;;;7.90;3.40;;;;;;;24.13;100.00;100374.35;105904;1257;63611;-43
2023/06/15 08:16:54;;;;;;;7.10;3.60;;;;;;;24.34;100.00;100354.03;105871;1256;72631;-43
2023/06/15 08:19:22;;;;;;;13.30;3.70;;;;;;;24.39;100.00;100361.45;105818;1254;60514;-43
2023/06/15 08:21:50;;;;;;;22.00;4.20;;;;;;;24.43;100.00;100374.70;105986;1255;60490;-43
2023/06/15 08:24:17;;;;;;;10.00;3.40;;;;;;;24.72;100.00;100358.14;105853;1256;73853;-44
2023/06/15 08:26:48;;;;;;;9.50;3.40;;;;;;;25.06;100.00;100336.42;105915;1257;64023;-44
2023/06/15 08:29:16;;;;;;;9.30;3.90;;;;;;;25.37;100.00;100342.19;105927;1253;71438;-43
2023/06/15 08:31:52;;;;;;;7.70;3.10;;;;;;;25.48;92.44;100302.25;105748;1253;60966;-43
2023/06/15 08:34:19;;;;;;;8.00;3.00;;;;;;;25.21;94.66;100333.10;105885;1252;60341;-43
2023/06/15 08:36:49;;;;;;;6.10;3.30;;;;;;;25.16;96.09;100350.06;105842;1252;72903;-43
2023/06/15 08:39:17;;;;;;;6.90;3.50;;;;;;;25.22;99.88;100361.93;105968;1254;65594;-44
2023/06/15 08:41:47;;;;;;;7.50;3.00;;;;;;;25.32;91.23;100353.36;105841;1253;70862;-44
2023/06/15 08:44:15;;;;;;;9.20;3.60;;;;;;;25.24;84.78;100346.39;105699;1254;60561;-43
2023/06/15 08:46:43;;;;;;;15.00;3.50;;;;;;;25.08;91.41;100371.75;105648;1253;60423;-43
2023/06/15 08:49:11;;;;;;;12.60;3.70;;;;;;;25.05;94.75;100370.59;105885;1257;73810;-43
2023/06/15 08:51:40;;;;;;;10.20;2.90;;;;;;;25.23;100.00;100389.55;105951;1254;64615;-43
2023/06/15 08:54:08;;;;;;;6.40;3.10;;;;;;;25.58;96.91;100359.90;105908;1253;71463;-44
2023/06/15 08:56:38;;;;;;;15.80;3.90;;;;;;;25.88;81.04;100325.09;105903;1257;61019;-43
2023/06/15 08:59:07;;;;;;;15.40;4.00;;;;;;;25.88;78.09;100328.10;105873;1254;60447;-44
2023/06/15 09:01:39;;;;;;;14.00;3.80;;;;;;;25.65;78.50;100344.64;105908;1252;72591;-45
2023/06/15 09:04:08;;;;;;;3.40;2.60;;;;;;;25.39;85.31;100378.02;105582;1259;63904;-45
2023/06/15 09:06:36;;;;;;;10.90;3.50;;;;;;;25.28;96.59;100398.20;105648;1256;71382;-43
2023/06/15 09:09:04;;;;;;;9.70;3.60;;;;;;;25.17;100.00;100402.09;105814;1253;60543;-44
2023/06/15 09:11:40;;;;;;;8.30;3.30;;;;;;;25.06;99.58;100394.67;105896;1252;60418;-45
2023/06/15 09:14:09;;;;;;;12.10;3.20;;;;;;;25.14;96.91;100377.58;105954;1253;72601;-45
2023/06/15 09:16:38;;;;;;;5.60;3.40;;;;;;;25.20;99.49;100385.05;105908;1253;66051;-43
2023/06/15 09:19:16;;;;;;;11.30;3.10;;;;;;;25.25;99.77;100385.54;105837;1256;72516;-46
2023/06/15 09:21:51;;;;;;;9.00;3.30;;;;;;;25.42;93.17;100369.70;105722;1255;60482;-49
2023/06/15 09:24:23;;;;;;;11.90;3.10;;;;;;;25.47;86.11;100358.48;105938;1257;60422;-44
2023/06/15 09:26:51;;;;;;;11.90;3.50;;;;;;;25.67;83.48;100358.46;105873;1254;73875;-44
2023/06/15 09:29:18;;;;;;;10.10;3.30;;;;;;;25.84;80.63;100350.34;105919;1254;63984;-44
2023/06/15 09:31:46;;;;;;;6.40;3.30;;;;;;;25.72;78.86;100349.23;105874;1253;71374;-44
2023/06/15 09:34:14;;;;;;;11.20;3.30;;;;;;;25.74;77.98;100347.09;105888;1256;60329;-44
2023/06/15 09:36:49;;;;;;;10.90;4.00;;;;;;;25.89;81.14;100364.96;105890;1256;60329;-44
2023/06/15 09:39:22;;;;;;;15.60;3.30;;;;;;;25.74;77.69;100349.90;105881;1252;73867;-44
2023/06/15 09:41:53;;;;;;;11.10;3.50;;;;;;;25.62;85.55;100389.10;105872;1257;65159;-44
2023/06/15 09:44:25;;;;;;;6.40;3.10;;;;;;;25.68;87.13;100387.68;105920;1254;72650;-44
2023/06/15 09:46:56;;;;;;;7.50;3.50;;;;;;;25.72;90.47;100387.55;105954;1252;60469;-44
2023/06/15 09:49:27;;;;;;;6.80;3.60;;;;;;;25.85;99.96;100407.55;105900;1256;60406;-44
2023/06/15 09:51:55;;;;;;;12.40;3.40;;;;;;;26.11;95.89;100370.70;105898;1251;72560;-43
2023/06/15 09:54:25;;;;;;;5.90;3.20;;;;;;;26.31;97.89;100376.96;105904;1258;65216;-45
2023/06/15 09:56:53;;;;;;;8.40;3.30;;;;;;;26.62;87.37;100338.04;105875;1253;72745;-43
2023/06/15 09:59:21;;;;;;;12.50;3.50;;;;;;;26.88;86.93;100338.98;105884;1252;60441;-43
2023/06/15 10:01:50;;;;;;;12.30;3.50;;;;;;;27.07;76.52;100300.94;105922;1256;60377;-43
2023/06/15 10:04:20;;;;;;;13.80;3.50;;;;;;;26.93;76.12;100319.22;105892;1252;72606;-44
2023/06/15 10:06:55;;;;;;;13.50;3.60;;;;;;;26.79;78.21;100339.88;105897;1256;63903;-44
2023/06/15 10:09:28;;;;;;;8.60;3.10;;;;;;;26.69;76.48;100327.92;105870;1257;73045;-43
2023/06/15 10:12:05;;;;;;;4.50;2.70;;;;;;;26.54;74.22;100321.02;105890;1257;60527;-43
2023/06/15 10:14:45;;;;;;;12.30;3.60;;;;;;;26.36;72.71;100319.62;105954;1254;60441;-43
2023/06/15 10:17:14;;;;;;;10.50;3.20;;;;;;;26.28;76.43;100346.60;105862;1254;72541;-42
2023/06/15 10:19:43;;;;;;;12.20;3.30;;;;;;;26.60;76.72;100336.59;105924;1252;63498;-43
2023/06/15 10:22:21;;;;;;;11.20;3.60;;;;;;;26.89;72.30;100302.91;105883;1254;71419;-42
2023/06/15 10:24:50;;;;;;;9.80;3.60;;;;;;;27.07;70.41;100290.36;105936;1253;60520;-43
2023/06/15 10:27:17;;;;;;;10.40;3.30;;;;;;;27.35;68.44;100274.55;105856;1253;61973;-43
2023/06/15 10:29:58;;;;;;;9.20;3.20;;;;;;;27.54;67.66;100273.99;105678;1252;72612;-43
2023/06/15 10:32:45;;;;;;;11.40;3.50;;;;;;;27.85;64.69;100236.27;106012;1256;63976;-44
2023/06/15 10:35:30;;;;;;;7.90;3.80;;;;;;;27.95;64.83;100259.95;105942;1251;72592;-43
2023/06/15 10:38:26;;;;;;;9.20;3.20;;;;;;;27.79;63.48;100246.23;105764;1254;60577;-43
2023/06/15 10:40:54;;;;;;;8.70;3.00;;;;;;;27.69;64.58;100278.84;105872;1251;60751;-44
2023/06/15 10:43:26;;;;;;;10.70;3.10;;;;;;;27.98;63.93;100260.38;105840;1253;73802;-43
2023/06/15 10:45:55;;;;;;;13.10;3.60;;;;;;;28.19;63.96;100265.30;105920;1253;65250;-44
2023/06/15 10:48:27;;;;;;;13.80;3.70;;;;;;;28.32;63.18;100262.50;105894;1256;72428;-45
2023/06/15 10:51:21;;;;;;;17.50;3.70;;;;;;;28.14;63.94;100270.39;105946;1256;60423;-44
2023/06/15 10:53:49;;;;;;;9.60;3.90;;;;;;;27.94;65.07;100310.59;105855;1253;60329;-45
2023/06/15 10:56:19;;;;;;;13.80;4.20;;;;;;;27.53;66.63;100336.45;105885;1254;73816;-44
2023/06/15 10:58:54;;;;;;;10.00;4.60;;;;;;;27.17;69.23;100365.40;105890;1252;64025;-44
2023/06/15 11:01:26;;;;;;;;;;;;;;;26.89;74.06;100387.36;105884;1253;71617;-44
2023/06/15 11:03:55;;;;;;;9.90;4.00;;;;;;;26.87;81.61;100398.17;105891;1256;60507;-44
2023/06/15 11:06:35;;;;;;;8.20;3.60;;;;;;;26.95;76.42;100364.30;105844;1256;60475;-44
2023/06/15 11:09:06;;;;;;;12.60;3.40;;;;;;;27.08;73.17;100334.31;105883;1251;72931;-42
2023/06/15 11:11:38;;;;;;;8.40;3.80;;;;;;;27.34;66.43;100272.17;105906;1252;65227;-44
2023/06/15 11:14:07;;;;;;;9.10;3.30;;;;;;;27.61;63.75;100238.19;105952;1256;71410;-43
2023/06/15 11:16:36;;;;;;;10.40;3.20;;;;;;;27.65;60.44;100192.92;105888;1253;60528;-43
2023/06/15 11:19:10;;;;;;;16.90;3.30;;;;;;;27.70;60.78;100220.61;105936;1252;60471;-43